sensor_id;sensor_type;location;lat;lon;timestamp;temperature;humidity
7196;DHT22;3639;51.308;5.624;2023-04-29T00:01:09;11.20;99.90
7196;DHT22;3639;51.308;5.624;2023-04-29T00:03:35;11.20;99.90
7196;DHT22;3639;51.308;5.624;2023-04-29T00:06:01;11.20;99.90
7196;DHT22;3639;51.308;5.624;2023-04-29T00:08:27;11.10;99.90
7196;DHT22;3639;51.308;5.624;2023-04-29T00:10:52;11.10;99.90
7196;DHT22;3639;51.308;5.624;2023-04-29T00:13:18;11.10;99.90
7196;DHT22;3639;51.308;5.624;2023-04-29T00:15:43;11.10;99.90
7196;DHT22;3639;51.308;5.624;2023-04-29T00:18:09;11.00;99.90
7196;DHT22;3639;51.308;5.624;2023-04-29T00:20:35;11.00;99.90
7196;DHT22;3639;51.308;5.624;2023-04-29T00:23:02;11.00;99.90
7196;DHT22;3639;51.308;5.624;2023-04-29T00:25:28;11.00;99.90
7196;DHT22;3639;51.308;5.624;2023-04-29T00:27:57;11.00;99.90
7196;DHT22;3639;51.308;5.624;2023-04-29T00:30:26;11.00;99.90
7196;DHT22;3639;51.308;5.624;2023-04-29T00:32:53;11.00;99.90
7196;DHT22;3639;51.308;5.624;2023-04-29T00:35:19;10.90;99.90
7196;DHT22;3639;51.308;5.624;2023-04-29T00:37:45;10.90;99.90
7196;DHT22;3639;51.308;5.624;2023-04-29T00:40:10;10.80;99.90
7196;DHT22;3639;51.308;5.624;2023-04-29T00:42:39;10.80;99.90
7196;DHT22;3639;51.308;5.624;2023-04-29T00:45:06;10.80;99.90
7196;DHT22;3639;51.308;5.624;2023-04-29T00:47:32;10.80;99.90
7196;DHT22;3639;51.308;5.624;2023-04-29T00:49:58;10.80;99.90
7196;DHT22;3639;51.308;5.624;2023-04-29T00:52:23;10.80;99.90
7196;DHT22;3639;51.308;5.624;2023-04-29T00:54:51;10.80;99.90
7196;DHT22;3639;51.308;5.624;2023-04-29T00:57:18;10.70;99.90
7196;DHT22;3639;51.308;5.624;2023-04-29T00:59:44;10.70;99.90
7196;DHT22;3639;51.308;5.624;2023-04-29T01:02:10;10.80;99.90
7196;DHT22;3639;51.308;5.624;2023-04-29T01:04:36;10.80;99.90
7196;DHT22;3639;51.308;5.624;2023-04-29T01:07:22;10.70;99.90
7196;DHT22;3639;51.308;5.624;2023-04-29T01:10:02;10.70;99.90
7196;DHT22;3639;51.308;5.624;2023-04-29T01:12:44;10.60;99.90
7196;DHT22;3639;51.308;5.624;2023-04-29T01:15:21;10.50;99.90
7196;DHT22;3639;51.308;5.624;2023-04-29T01:17:59;10.50;99.90
7196;DHT22;3639;51.308;5.624;2023-04-29T01:20:29;10.50;99.90
7196;DHT22;3639;51.308;5.624;2023-04-29T01:22:55;10.40;99.90
7196;DHT22;3639;51.308;5.624;2023-04-29T01:25:21;10.50;99.90
7196;DHT22;3639;51.308;5.624;2023-04-29T01:38:57;10.20;99.90
7196;DHT22;3639;51.308;5.624;2023-04-29T01:41:41;10.30;99.90
7196;DHT22;3639;51.308;5.624;2023-04-29T01:44:15;10.20;99.90
7196;DHT22;3639;51.308;5.624;2023-04-29T01:46:48;10.20;99.90
7196;DHT22;3639;51.308;5.624;2023-04-29T01:49:14;10.20;99.90
7196;DHT22;3639;51.308;5.624;2023-04-29T01:51:40;10.20;99.90
7196;DHT22;3639;51.308;5.624;2023-04-29T01:54:05;10.20;99.90
7196;DHT22;3639;51.308;5.624;2023-04-29T01:56:31;10.20;99.90
7196;DHT22;3639;51.308;5.624;2023-04-29T01:58:57;10.20;99.90
7196;DHT22;3639;51.308;5.624;2023-04-29T02:01:22;10.10;99.90
7196;DHT22;3639;51.308;5.624;2023-04-29T02:03:48;10.00;99.90
7196;DHT22;3639;51.308;5.624;2023-04-29T02:06:13;10.00;99.90
7196;DHT22;3639;51.308;5.624;2023-04-29T02:08:39;10.00;99.90
7196;DHT22;3639;51.308;5.624;2023-04-29T02:11:05;10.00;99.90
7196;DHT22;3639;51.308;5.624;2023-04-29T02:13:31;10.00;99.90
7196;DHT22;3639;51.308;5.624;2023-04-29T02:15:56;10.00;99.90
7196;DHT22;3639;51.308;5.624;2023-04-29T02:18:22;10.00;99.90
7196;DHT22;3639;51.308;5.624;2023-04-29T02:20:47;10.00;99.90
7196;DHT22;3639;51.308;5.624;2023-04-29T02:23:16;10.00;99.90
7196;DHT22;3639;51.308;5.624;2023-04-29T02:25:41;10.00;99.90
7196;DHT22;3639;51.308;5.624;2023-04-29T02:28:07;10.00;99.90
7196;DHT22;3639;51.308;5.624;2023-04-29T02:30:33;10.00;99.90
7196;DHT22;3639;51.308;5.624;2023-04-29T02:32:58;10.00;99.90
7196;DHT22;3639;51.308;5.624;2023-04-29T02:35:24;10.00;99.90
7196;DHT22;3639;51.308;5.624;2023-04-29T02:37:50;10.00;99.90
7196;DHT22;3639;51.308;5.624;2023-04-29T02:40:15;10.00;99.90
7196;DHT22;3639;51.308;5.624;2023-04-29T02:42:41;9.90;99.90
7196;DHT22;3639;51.308;5.624;2023-04-29T02:45:07;10.00;99.90
7196;DHT22;3639;51.308;5.624;2023-04-29T02:47:33;10.00;99.90
7196;DHT22;3639;51.308;5.624;2023-04-29T02:49:58;10.00;99.90
7196;DHT22;3639;51.308;5.624;2023-04-29T02:52:24;10.00;99.90
7196;DHT22;3639;51.308;5.624;2023-04-29T02:54:49;9.90;99.90
7196;DHT22;3639;51.308;5.624;2023-04-29T02:57:15;9.90;99.90
7196;DHT22;3639;51.308;5.624;2023-04-29T02:59:41;9.90;99.90
7196;DHT22;3639;51.308;5.624;2023-04-29T03:02:07;9.90;99.90
7196;DHT22;3639;51.308;5.624;2023-04-29T03:04:32;9.90;99.90
7196;DHT22;3639;51.308;5.624;2023-04-29T03:06:58;10.00;99.90
7196;DHT22;3639;51.308;5.624;2023-04-29T03:09:24;10.00;99.90
7196;DHT22;3639;51.308;5.624;2023-04-29T03:11:49;10.00;99.90
7196;DHT22;3639;51.308;5.624;2023-04-29T03:14:15;10.00;99.90
7196;DHT22;3639;51.308;5.624;2023-04-29T03:16:41;10.00;99.90
7196;DHT22;3639;51.308;5.624;2023-04-29T03:19:07;10.00;99.90
7196;DHT22;3639;51.308;5.624;2023-04-29T03:21:32;10.00;99.90
7196;DHT22;3639;51.308;5.624;2023-04-29T03:23:58;10.00;99.90
7196;DHT22;3639;51.308;5.624;2023-04-29T03:26:23;10.00;99.90
7196;DHT22;3639;51.308;5.624;2023-04-29T03:28:50;9.90;99.90
7196;DHT22;3639;51.308;5.624;2023-04-29T03:31:15;9.90;99.90
7196;DHT22;3639;51.308;5.624;2023-04-29T03:33:41;9.90;99.90
7196;DHT22;3639;51.308;5.624;2023-04-29T03:36:07;9.80;99.90
7196;DHT22;3639;51.308;5.624;2023-04-29T03:38:34;9.90;99.90
7196;DHT22;3639;51.308;5.624;2023-04-29T03:40:59;9.90;99.90
7196;DHT22;3639;51.308;5.624;2023-04-29T03:43:25;9.90;99.90
7196;DHT22;3639;51.308;5.624;2023-04-29T03:45:51;9.90;99.90
7196;DHT22;3639;51.308;5.624;2023-04-29T03:48:17;9.80;99.90
7196;DHT22;3639;51.308;5.624;2023-04-29T03:50:42;9.80;99.90
7196;DHT22;3639;51.308;5.624;2023-04-29T03:53:08;9.80;99.90
7196;DHT22;3639;51.308;5.624;2023-04-29T03:55:34;9.80;99.90
7196;DHT22;3639;51.308;5.624;2023-04-29T03:58:00;9.80;99.90
7196;DHT22;3639;51.308;5.624;2023-04-29T04:00:26;9.80;99.90
7196;DHT22;3639;51.308;5.624;2023-04-29T04:02:55;9.70;99.90
7196;DHT22;3639;51.308;5.624;2023-04-29T04:05:21;9.70;99.90
7196;DHT22;3639;51.308;5.624;2023-04-29T04:07:52;9.70;99.90
7196;DHT22;3639;51.308;5.624;2023-04-29T04:10:18;9.60;99.90
7196;DHT22;3639;51.308;5.624;2023-04-29T04:12:44;9.70;99.90
7196;DHT22;3639;51.308;5.624;2023-04-29T04:15:10;9.70;99.90
7196;DHT22;3639;51.308;5.624;2023-04-29T04:17:36;9.70;99.90
7196;DHT22;3639;51.308;5.624;2023-04-29T04:20:01;9.70;99.90
7196;DHT22;3639;51.308;5.624;2023-04-29T04:22:27;9.60;99.90
7196;DHT22;3639;51.308;5.624;2023-04-29T04:24:56;9.60;99.90
7196;DHT22;3639;51.308;5.624;2023-04-29T04:27:22;9.60;99.90
7196;DHT22;3639;51.308;5.624;2023-04-29T04:29:51;9.60;99.90
7196;DHT22;3639;51.308;5.624;2023-04-29T04:32:17;9.60;99.90
7196;DHT22;3639;51.308;5.624;2023-04-29T04:34:43;9.60;99.90
7196;DHT22;3639;51.308;5.624;2023-04-29T04:37:08;9.60;99.90
7196;DHT22;3639;51.308;5.624;2023-04-29T04:39:34;9.60;99.90
7196;DHT22;3639;51.308;5.624;2023-04-29T04:41:59;9.60;99.90
7196;DHT22;3639;51.308;5.624;2023-04-29T04:44:27;9.60;99.90
7196;DHT22;3639;51.308;5.624;2023-04-29T04:46:53;9.60;99.90
7196;DHT22;3639;51.308;5.624;2023-04-29T04:49:18;9.60;99.90
7196;DHT22;3639;51.308;5.624;2023-04-29T04:51:44;9.60;99.90
7196;DHT22;3639;51.308;5.624;2023-04-29T04:54:10;9.60;99.90
7196;DHT22;3639;51.308;5.624;2023-04-29T04:56:36;9.60;99.90
7196;DHT22;3639;51.308;5.624;2023-04-29T04:59:02;9.60;99.90
7196;DHT22;3639;51.308;5.624;2023-04-29T05:01:28;9.60;99.90
7196;DHT22;3639;51.308;5.624;2023-04-29T05:03:54;9.60;99.90
7196;DHT22;3639;51.308;5.624;2023-04-29T05:06:20;9.60;99.90
7196;DHT22;3639;51.308;5.624;2023-04-29T05:08:45;9.60;99.90
7196;DHT22;3639;51.308;5.624;2023-04-29T05:11:17;9.60;99.90
7196;DHT22;3639;51.308;5.624;2023-04-29T05:13:43;9.60;99.90
7196;DHT22;3639;51.308;5.624;2023-04-29T05:16:09;9.60;99.90
7196;DHT22;3639;51.308;5.624;2023-04-29T05:18:35;9.60;99.90
7196;DHT22;3639;51.308;5.624;2023-04-29T05:21:00;9.70;99.90
7196;DHT22;3639;51.308;5.624;2023-04-29T05:23:26;9.60;99.90
7196;DHT22;3639;51.308;5.624;2023-04-29T05:25:52;9.60;99.90
7196;DHT22;3639;51.308;5.624;2023-04-29T05:28:18;9.70;99.90
7196;DHT22;3639;51.308;5.624;2023-04-29T05:30:43;9.70;99.90
7196;DHT22;3639;51.308;5.624;2023-04-29T05:33:09;9.70;99.90
7196;DHT22;3639;51.308;5.624;2023-04-29T05:35:35;9.70;99.90
7196;DHT22;3639;51.308;5.624;2023-04-29T05:38:01;9.70;99.90
7196;DHT22;3639;51.308;5.624;2023-04-29T05:40:27;9.70;99.90
7196;DHT22;3639;51.308;5.624;2023-04-29T05:42:53;9.70;99.90
7196;DHT22;3639;51.308;5.624;2023-04-29T05:45:18;9.70;99.90
7196;DHT22;3639;51.308;5.624;2023-04-29T05:47:44;9.70;99.90
7196;DHT22;3639;51.308;5.624;2023-04-29T05:50:10;9.70;99.90
7196;DHT22;3639;51.308;5.624;2023-04-29T05:52:36;9.70;99.90
7196;DHT22;3639;51.308;5.624;2023-04-29T05:55:02;9.70;99.90
7196;DHT22;3639;51.308;5.624;2023-04-29T05:57:27;9.70;99.90
7196;DHT22;3639;51.308;5.624;2023-04-29T05:59:53;9.70;99.90
7196;DHT22;3639;51.308;5.624;2023-04-29T06:02:24;9.80;99.90
7196;DHT22;3639;51.308;5.624;2023-04-29T06:04:49;9.80;99.90
7196;DHT22;3639;51.308;5.624;2023-04-29T06:07:15;9.80;99.90
7196;DHT22;3639;51.308;5.624;2023-04-29T06:09:41;9.80;99.90
7196;DHT22;3639;51.308;5.624;2023-04-29T06:12:07;9.80;99.90
7196;DHT22;3639;51.308;5.624;2023-04-29T06:14:32;9.80;99.90
7196;DHT22;3639;51.308;5.624;2023-04-29T06:16:58;9.80;99.90
7196;DHT22;3639;51.308;5.624;2023-04-29T06:19:24;9.80;99.90
7196;DHT22;3639;51.308;5.624;2023-04-29T06:21:49;9.80;99.90
7196;DHT22;3639;51.308;5.624;2023-04-29T06:24:15;9.90;99.90
7196;DHT22;3639;51.308;5.624;2023-04-29T06:26:41;9.80;99.90
7196;DHT22;3639;51.308;5.624;2023-04-29T06:29:06;9.90;99.90
7196;DHT22;3639;51.308;5.624;2023-04-29T06:31:32;9.90;99.90
7196;DHT22;3639;51.308;5.624;2023-04-29T06:33:58;9.90;99.90
7196;DHT22;3639;51.308;5.624;2023-04-29T06:36:23;9.90;99.90
7196;DHT22;3639;51.308;5.624;2023-04-29T06:38:49;9.90;99.90
7196;DHT22;3639;51.308;5.624;2023-04-29T06:41:15;9.90;99.90
7196;DHT22;3639;51.308;5.624;2023-04-29T06:43:40;9.90;99.90
7196;DHT22;3639;51.308;5.624;2023-04-29T06:46:08;9.90;99.90
7196;DHT22;3639;51.308;5.624;2023-04-29T06:48:34;10.00;99.90
7196;DHT22;3639;51.308;5.624;2023-04-29T06:51:00;10.00;99.90
7196;DHT22;3639;51.308;5.624;2023-04-29T06:53:25;9.90;99.90
7196;DHT22;3639;51.308;5.624;2023-04-29T06:55:51;9.90;99.90
7196;DHT22;3639;51.308;5.624;2023-04-29T06:58:17;9.90;99.90
7196;DHT22;3639;51.308;5.624;2023-04-29T07:00:45;9.90;99.90
7196;DHT22;3639;51.308;5.624;2023-04-29T07:03:11;9.90;99.90
7196;DHT22;3639;51.308;5.624;2023-04-29T07:05:37;9.90;99.90
7196;DHT22;3639;51.308;5.624;2023-04-29T07:08:07;10.00;99.90
7196;DHT22;3639;51.308;5.624;2023-04-29T07:10:33;9.90;99.90
7196;DHT22;3639;51.308;5.624;2023-04-29T07:12:59;10.00;99.90
7196;DHT22;3639;51.308;5.624;2023-04-29T07:15:26;10.00;99.90
7196;DHT22;3639;51.308;5.624;2023-04-29T07:17:51;10.00;99.90
7196;DHT22;3639;51.308;5.624;2023-04-29T07:20:17;10.00;99.90
7196;DHT22;3639;51.308;5.624;2023-04-29T07:22:43;10.00;99.90
7196;DHT22;3639;51.308;5.624;2023-04-29T07:25:09;9.90;99.90
7196;DHT22;3639;51.308;5.624;2023-04-29T07:27:35;10.00;99.90
7196;DHT22;3639;51.308;5.624;2023-04-29T07:30:04;9.90;99.90
7196;DHT22;3639;51.308;5.624;2023-04-29T07:32:30;9.90;99.90
7196;DHT22;3639;51.308;5.624;2023-04-29T07:34:57;9.90;99.90
7196;DHT22;3639;51.308;5.624;2023-04-29T07:37:22;9.90;99.90
7196;DHT22;3639;51.308;5.624;2023-04-29T07:39:48;10.00;99.90
7196;DHT22;3639;51.308;5.624;2023-04-29T07:42:13;10.00;99.90
7196;DHT22;3639;51.308;5.624;2023-04-29T07:44:39;10.10;99.90
7196;DHT22;3639;51.308;5.624;2023-04-29T07:47:05;10.10;99.90
7196;DHT22;3639;51.308;5.624;2023-04-29T07:49:31;10.30;99.90
7196;DHT22;3639;51.308;5.624;2023-04-29T07:51:57;10.30;99.90
7196;DHT22;3639;51.308;5.624;2023-04-29T07:54:22;10.40;99.90
7196;DHT22;3639;51.308;5.624;2023-04-29T07:56:48;10.50;99.90
7196;DHT22;3639;51.308;5.624;2023-04-29T07:59:14;10.60;99.90
7196;DHT22;3639;51.308;5.624;2023-04-29T08:01:40;10.60;99.90
7196;DHT22;3639;51.308;5.624;2023-04-29T08:04:06;10.70;99.90
7196;DHT22;3639;51.308;5.624;2023-04-29T08:06:32;10.80;99.90
7196;DHT22;3639;51.308;5.624;2023-04-29T08:08:58;10.90;99.90
7196;DHT22;3639;51.308;5.624;2023-04-29T08:11:24;11.00;99.90
7196;DHT22;3639;51.308;5.624;2023-04-29T08:13:51;11.10;99.90
7196;DHT22;3639;51.308;5.624;2023-04-29T08:16:17;11.20;99.90
7196;DHT22;3639;51.308;5.624;2023-04-29T08:18:43;11.30;99.90
7196;DHT22;3639;51.308;5.624;2023-04-29T08:21:09;11.40;99.90
7196;DHT22;3639;51.308;5.624;2023-04-29T08:23:37;11.50;99.90
7196;DHT22;3639;51.308;5.624;2023-04-29T08:26:02;11.70;99.90
7196;DHT22;3639;51.308;5.624;2023-04-29T08:28:28;11.70;99.90
7196;DHT22;3639;51.308;5.624;2023-04-29T08:30:54;11.60;99.90
7196;DHT22;3639;51.308;5.624;2023-04-29T08:33:20;11.70;99.90
7196;DHT22;3639;51.308;5.624;2023-04-29T08:35:45;11.70;99.90
7196;DHT22;3639;51.308;5.624;2023-04-29T08:38:11;11.80;99.90
7196;DHT22;3639;51.308;5.624;2023-04-29T08:40:43;12.00;99.90
7196;DHT22;3639;51.308;5.624;2023-04-29T08:43:13;11.90;99.90
7196;DHT22;3639;51.308;5.624;2023-04-29T08:45:42;11.90;99.90
7196;DHT22;3639;51.308;5.624;2023-04-29T08:48:08;12.00;99.90
7196;DHT22;3639;51.308;5.624;2023-04-29T08:50:38;12.00;99.90
7196;DHT22;3639;51.308;5.624;2023-04-29T08:53:05;12.00;99.90
7196;DHT22;3639;51.308;5.624;2023-04-29T08:55:42;11.90;99.90
7196;DHT22;3639;51.308;5.624;2023-04-29T08:58:09;11.90;99.90
7196;DHT22;3639;51.308;5.624;2023-04-29T09:00:36;11.80;99.90
7196;DHT22;3639;51.308;5.624;2023-04-29T09:03:21;11.90;99.90
7196;DHT22;3639;51.308;5.624;2023-04-29T09:05:52;12.00;99.90
7196;DHT22;3639;51.308;5.624;2023-04-29T09:08:20;12.20;99.90
7196;DHT22;3639;51.308;5.624;2023-04-29T09:10:48;12.30;99.90
7196;DHT22;3639;51.308;5.624;2023-04-29T09:13:29;12.50;99.90
7196;DHT22;3639;51.308;5.624;2023-04-29T09:15:55;12.70;99.90
7196;DHT22;3639;51.308;5.624;2023-04-29T09:18:40;12.80;99.90
7196;DHT22;3639;51.308;5.624;2023-04-29T09:21:23;12.80;99.90
7196;DHT22;3639;51.308;5.624;2023-04-29T09:23:57;12.90;99.90
7196;DHT22;3639;51.308;5.624;2023-04-29T09:26:23;12.90;99.90
7196;DHT22;3639;51.308;5.624;2023-04-29T09:29:06;13.00;99.90
7196;DHT22;3639;51.308;5.624;2023-04-29T09:31:32;13.00;99.90
7196;DHT22;3639;51.308;5.624;2023-04-29T09:33:58;13.00;99.90
7196;DHT22;3639;51.308;5.624;2023-04-29T09:36:38;13.10;99.90
7196;DHT22;3639;51.308;5.624;2023-04-29T09:39:10;13.40;99.90
7196;DHT22;3639;51.308;5.624;2023-04-29T09:44:08;13.30;99.90
7196;DHT22;3639;51.308;5.624;2023-04-29T09:46:34;13.30;99.90
7196;DHT22;3639;51.308;5.624;2023-04-29T09:49:01;13.00;99.90
7196;DHT22;3639;51.308;5.624;2023-04-29T09:51:27;13.00;99.90
7196;DHT22;3639;51.308;5.624;2023-04-29T09:53:53;12.90;99.90
7196;DHT22;3639;51.308;5.624;2023-04-29T09:56:18;12.80;99.90
7196;DHT22;3639;51.308;5.624;2023-04-29T09:58:44;13.10;99.90
7196;DHT22;3639;51.308;5.624;2023-04-29T10:01:10;13.30;99.90
7196;DHT22;3639;51.308;5.624;2023-04-29T10:03:38;13.50;99.90
7196;DHT22;3639;51.308;5.624;2023-04-29T10:06:05;13.50;99.90
7196;DHT22;3639;51.308;5.624;2023-04-29T10:08:32;13.60;99.90
7196;DHT22;3639;51.308;5.624;2023-04-29T10:11:04;13.60;99.90
7196;DHT22;3639;51.308;5.624;2023-04-29T10:13:30;13.70;99.90
7196;DHT22;3639;51.308;5.624;2023-04-29T10:18:54;13.80;99.90
7196;DHT22;3639;51.308;5.624;2023-04-29T10:21:26;14.00;99.90
7196;DHT22;3639;51.308;5.624;2023-04-29T10:23:53;14.00;99.90
7196;DHT22;3639;51.308;5.624;2023-04-29T10:26:21;14.10;99.90
7196;DHT22;3639;51.308;5.624;2023-04-29T10:28:49;14.20;99.90
7196;DHT22;3639;51.308;5.624;2023-04-29T10:31:16;14.30;99.90
7196;DHT22;3639;51.308;5.624;2023-04-29T10:33:43;14.50;99.90
7196;DHT22;3639;51.308;5.624;2023-04-29T10:36:10;14.70;99.90
7196;DHT22;3639;51.308;5.624;2023-04-29T10:38:47;14.80;99.90
7196;DHT22;3639;51.308;5.624;2023-04-29T10:41:27;14.60;99.90
7196;DHT22;3639;51.308;5.624;2023-04-29T10:43:54;14.70;99.90
7196;DHT22;3639;51.308;5.624;2023-04-29T10:46:22;14.80;99.90
7196;DHT22;3639;51.308;5.624;2023-04-29T10:49:04;14.90;99.90
7196;DHT22;3639;51.308;5.624;2023-04-29T10:51:34;14.90;99.90
7196;DHT22;3639;51.308;5.624;2023-04-29T10:54:15;14.70;99.90
7196;DHT22;3639;51.308;5.624;2023-04-29T10:56:51;14.30;99.90
7196;DHT22;3639;51.308;5.624;2023-04-29T10:59:21;14.40;99.90
7196;DHT22;3639;51.308;5.624;2023-04-29T11:02:06;14.60;99.90
7196;DHT22;3639;51.308;5.624;2023-04-29T11:04:34;14.90;99.90
7196;DHT22;3639;51.308;5.624;2023-04-29T11:06:59;15.30;99.90
7196;DHT22;3639;51.308;5.624;2023-04-29T11:09:30;15.40;99.90
7196;DHT22;3639;51.308;5.624;2023-04-29T11:12:03;15.40;99.90
7196;DHT22;3639;51.308;5.624;2023-04-29T11:14:41;15.50;99.90
7196;DHT22;3639;51.308;5.624;2023-04-29T11:17:12;15.00;99.90
7196;DHT22;3639;51.308;5.624;2023-04-29T11:24:34;14.50;99.90
7196;DHT22;3639;51.308;5.624;2023-04-29T11:27:02;14.50;99.90
7196;DHT22;3639;51.308;5.624;2023-04-29T11:29:31;14.60;99.90
7196;DHT22;3639;51.308;5.624;2023-04-29T11:32:01;14.70;99.90
7196;DHT22;3639;51.308;5.624;2023-04-29T11:34:26;14.70;99.90
7196;DHT22;3639;51.308;5.624;2023-04-29T11:36:52;14.90;99.90
7196;DHT22;3639;51.308;5.624;2023-04-29T11:39:18;15.00;99.90
7196;DHT22;3639;51.308;5.624;2023-04-29T11:41:43;15.20;99.90
7196;DHT22;3639;51.308;5.624;2023-04-29T11:44:11;15.30;99.90
7196;DHT22;3639;51.308;5.624;2023-04-29T11:46:36;15.20;99.90
7196;DHT22;3639;51.308;5.624;2023-04-29T11:49:02;15.20;99.90
7196;DHT22;3639;51.308;5.624;2023-04-29T11:51:28;15.10;99.90
7196;DHT22;3639;51.308;5.624;2023-04-29T11:53:54;14.90;99.90
7196;DHT22;3639;51.308;5.624;2023-04-29T11:56:22;14.70;99.90
7196;DHT22;3639;51.308;5.624;2023-04-29T11:58:52;14.50;99.90
7196;DHT22;3639;51.308;5.624;2023-04-29T12:01:19;14.30;99.90
7196;DHT22;3639;51.308;5.624;2023-04-29T12:03:48;14.30;99.90
7196;DHT22;3639;51.308;5.624;2023-04-29T12:06:13;14.30;99.90
7196;DHT22;3639;51.308;5.624;2023-04-29T12:08:39;14.40;99.90
7196;DHT22;3639;51.308;5.624;2023-04-29T12:11:06;14.40;99.90
7196;DHT22;3639;51.308;5.624;2023-04-29T12:13:33;14.50;99.90
7196;DHT22;3639;51.308;5.624;2023-04-29T12:16:01;14.60;99.90
7196;DHT22;3639;51.308;5.624;2023-04-29T12:18:28;14.70;99.90
7196;DHT22;3639;51.308;5.624;2023-04-29T12:20:55;14.80;99.90
7196;DHT22;3639;51.308;5.624;2023-04-29T12:23:23;15.00;99.90
7196;DHT22;3639;51.308;5.624;2023-04-29T12:25:59;15.00;99.90
7196;DHT22;3639;51.308;5.624;2023-04-29T12:28:25;15.00;99.90
7196;DHT22;3639;51.308;5.624;2023-04-29T12:30:52;14.90;99.90
7196;DHT22;3639;51.308;5.624;2023-04-29T12:33:26;15.10;99.90
7196;DHT22;3639;51.308;5.624;2023-04-29T12:35:55;15.20;99.90
7196;DHT22;3639;51.308;5.624;2023-04-29T12:38:22;15.40;99.90
7196;DHT22;3639;51.308;5.624;2023-04-29T12:40:48;15.60;99.90
7196;DHT22;3639;51.308;5.624;2023-04-29T12:43:15;15.80;99.90
7196;DHT22;3639;51.308;5.624;2023-04-29T12:45:41;15.90;99.90
7196;DHT22;3639;51.308;5.624;2023-04-29T12:48:07;16.10;99.90
7196;DHT22;3639;51.308;5.624;2023-04-29T12:50:34;15.90;99.90
7196;DHT22;3639;51.308;5.624;2023-04-29T12:53:02;15.80;99.90
7196;DHT22;3639;51.308;5.624;2023-04-29T12:55:28;15.70;99.90
7196;DHT22;3639;51.308;5.624;2023-04-29T12:57:54;15.50;99.90
7196;DHT22;3639;51.308;5.624;2023-04-29T13:00:20;15.40;99.90
7196;DHT22;3639;51.308;5.624;2023-04-29T13:02:46;15.50;99.90
7196;DHT22;3639;51.308;5.624;2023-04-29T13:05:12;15.60;99.90
7196;DHT22;3639;51.308;5.624;2023-04-29T13:07:38;15.60;99.90
7196;DHT22;3639;51.308;5.624;2023-04-29T13:10:04;15.60;99.90
7196;DHT22;3639;51.308;5.624;2023-04-29T13:12:33;15.70;99.90
7196;DHT22;3639;51.308;5.624;2023-04-29T13:14:59;15.90;99.90
7196;DHT22;3639;51.308;5.624;2023-04-29T13:17:24;16.00;99.90
7196;DHT22;3639;51.308;5.624;2023-04-29T13:19:50;16.20;99.90
7196;DHT22;3639;51.308;5.624;2023-04-29T13:22:16;16.10;99.90
7196;DHT22;3639;51.308;5.624;2023-04-29T13:24:42;16.20;99.90
7196;DHT22;3639;51.308;5.624;2023-04-29T13:27:07;16.30;99.90
7196;DHT22;3639;51.308;5.624;2023-04-29T13:29:33;16.60;99.90
7196;DHT22;3639;51.308;5.624;2023-04-29T13:31:59;16.70;99.90
7196;DHT22;3639;51.308;5.624;2023-04-29T13:34:24;16.80;99.90
7196;DHT22;3639;51.308;5.624;2023-04-29T13:36:50;16.80;99.90
7196;DHT22;3639;51.308;5.624;2023-04-29T13:39:16;16.80;99.90
7196;DHT22;3639;51.308;5.624;2023-04-29T13:41:42;16.90;99.90
7196;DHT22;3639;51.308;5.624;2023-04-29T13:44:07;16.50;99.90
7196;DHT22;3639;51.308;5.624;2023-04-29T13:46:33;16.60;99.90
7196;DHT22;3639;51.308;5.624;2023-04-29T13:48:58;16.70;99.90
7196;DHT22;3639;51.308;5.624;2023-04-29T13:51:24;16.70;99.90
7196;DHT22;3639;51.308;5.624;2023-04-29T13:53:50;16.60;99.90
7196;DHT22;3639;51.308;5.624;2023-04-29T13:56:15;16.50;99.90
7196;DHT22;3639;51.308;5.624;2023-04-29T13:58:41;16.40;99.90
7196;DHT22;3639;51.308;5.624;2023-04-29T14:01:07;16.30;99.90
7196;DHT22;3639;51.308;5.624;2023-04-29T14:03:33;16.50;99.90
7196;DHT22;3639;51.308;5.624;2023-04-29T14:05:58;16.40;99.90
7196;DHT22;3639;51.308;5.624;2023-04-29T14:08:24;16.70;99.90
7196;DHT22;3639;51.308;5.624;2023-04-29T14:10:50;16.70;99.90
7196;DHT22;3639;51.308;5.624;2023-04-29T14:13:15;16.30;99.90
7196;DHT22;3639;51.308;5.624;2023-04-29T14:15:42;16.20;99.90
7196;DHT22;3639;51.308;5.624;2023-04-29T14:18:08;16.10;99.90
7196;DHT22;3639;51.308;5.624;2023-04-29T14:20:34;16.10;99.90
7196;DHT22;3639;51.308;5.624;2023-04-29T14:23:00;16.20;99.90
7196;DHT22;3639;51.308;5.624;2023-04-29T14:25:26;16.20;99.90
7196;DHT22;3639;51.308;5.624;2023-04-29T14:27:52;16.20;99.90
7196;DHT22;3639;51.308;5.624;2023-04-29T14:30:17;16.40;99.90
7196;DHT22;3639;51.308;5.624;2023-04-29T14:32:43;16.50;99.90
7196;DHT22;3639;51.308;5.624;2023-04-29T14:35:09;16.30;99.90
7196;DHT22;3639;51.308;5.624;2023-04-29T14:37:34;16.10;99.90
7196;DHT22;3639;51.308;5.624;2023-04-29T14:40:00;16.00;99.90
7196;DHT22;3639;51.308;5.624;2023-04-29T14:42:26;16.00;99.90
7196;DHT22;3639;51.308;5.624;2023-04-29T14:44:51;16.00;99.90
7196;DHT22;3639;51.308;5.624;2023-04-29T14:47:18;16.00;99.90
7196;DHT22;3639;51.308;5.624;2023-04-29T14:49:44;16.10;99.90
7196;DHT22;3639;51.308;5.624;2023-04-29T14:52:09;16.20;99.90
7196;DHT22;3639;51.308;5.624;2023-04-29T14:54:35;16.10;99.90
7196;DHT22;3639;51.308;5.624;2023-04-29T14:57:01;16.00;99.90
7196;DHT22;3639;51.308;5.624;2023-04-29T14:59:26;16.10;99.90
7196;DHT22;3639;51.308;5.624;2023-04-29T15:01:54;16.20;99.80
7196;DHT22;3639;51.308;5.624;2023-04-29T15:04:21;16.30;99.90
7196;DHT22;3639;51.308;5.624;2023-04-29T15:06:48;16.30;99.90
7196;DHT22;3639;51.308;5.624;2023-04-29T15:09:13;16.20;99.90
7196;DHT22;3639;51.308;5.624;2023-04-29T15:11:39;16.10;99.90
7196;DHT22;3639;51.308;5.624;2023-04-29T15:14:05;16.20;99.90
7196;DHT22;3639;51.308;5.624;2023-04-29T15:16:31;16.40;99.90
7196;DHT22;3639;51.308;5.624;2023-04-29T15:18:56;16.50;99.90
7196;DHT22;3639;51.308;5.624;2023-04-29T15:21:22;16.80;99.90
7196;DHT22;3639;51.308;5.624;2023-04-29T15:23:47;16.90;99.90
7196;DHT22;3639;51.308;5.624;2023-04-29T15:26:15;16.80;99.90
7196;DHT22;3639;51.308;5.624;2023-04-29T15:28:41;16.80;99.80
7196;DHT22;3639;51.308;5.624;2023-04-29T15:31:07;16.90;99.70
7196;DHT22;3639;51.308;5.624;2023-04-29T15:33:36;16.90;99.70
7196;DHT22;3639;51.308;5.624;2023-04-29T15:36:02;16.70;98.90
7196;DHT22;3639;51.308;5.624;2023-04-29T15:38:27;16.60;99.80
7196;DHT22;3639;51.308;5.624;2023-04-29T15:40:54;16.60;99.90
7196;DHT22;3639;51.308;5.624;2023-04-29T15:43:26;16.70;99.90
7196;DHT22;3639;51.308;5.624;2023-04-29T15:45:51;16.70;99.90
7196;DHT22;3639;51.308;5.624;2023-04-29T15:48:17;16.70;99.70
7196;DHT22;3639;51.308;5.624;2023-04-29T15:50:42;16.70;99.80
7196;DHT22;3639;51.308;5.624;2023-04-29T15:53:08;16.60;99.50
7196;DHT22;3639;51.308;5.624;2023-04-29T15:55:36;16.60;99.90
7196;DHT22;3639;51.308;5.624;2023-04-29T15:58:02;16.50;99.80
7196;DHT22;3639;51.308;5.624;2023-04-29T16:00:27;16.50;99.90
7196;DHT22;3639;51.308;5.624;2023-04-29T16:02:53;16.30;99.90
7196;DHT22;3639;51.308;5.624;2023-04-29T16:05:19;16.20;99.90
7196;DHT22;3639;51.308;5.624;2023-04-29T16:07:44;16.20;99.90
7196;DHT22;3639;51.308;5.624;2023-04-29T16:10:10;16.30;99.90
7196;DHT22;3639;51.308;5.624;2023-04-29T16:12:36;16.30;99.90
7196;DHT22;3639;51.308;5.624;2023-04-29T16:15:03;16.30;99.90
7196;DHT22;3639;51.308;5.624;2023-04-29T16:17:30;16.20;99.90
7196;DHT22;3639;51.308;5.624;2023-04-29T16:19:56;16.10;99.90
7196;DHT22;3639;51.308;5.624;2023-04-29T16:22:24;16.10;99.90
7196;DHT22;3639;51.308;5.624;2023-04-29T16:24:52;16.10;99.90